createdAt,value
2023-04-01T00:00:17.595Z,0.00
2023-04-01T00:01:17.891Z,0.00
2023-04-01T00:02:17.612Z,0.00
2023-04-01T00:03:17.796Z,0.00
2023-04-01T00:04:17.618Z,0.00
2023-04-01T00:05:17.587Z,0.00
2023-04-01T00:06:17.591Z,0.00
2023-04-01T00:07:17.586Z,0.00
2023-04-01T00:08:17.584Z,0.00
2023-04-01T00:09:17.583Z,0.00
2023-04-01T00:10:17.578Z,0.00
2023-04-01T00:11:17.582Z,0.00
2023-04-01T00:12:17.583Z,0.00
2023-04-01T00:13:17.578Z,0.00
2023-04-01T00:14:17.586Z,0.00
2023-04-01T00:15:17.595Z,0.00
2023-04-01T00:16:22.190Z,0.00
2023-04-01T00:17:17.571Z,0.00
2023-04-01T00:18:17.563Z,0.00
2023-04-01T00:19:17.588Z,0.00
2023-04-01T00:20:17.564Z,0.00
2023-04-01T00:21:17.572Z,0.00
2023-04-01T00:22:17.555Z,0.00
2023-04-01T00:23:17.556Z,0.00
2023-04-01T00:24:17.566Z,0.00
2023-04-01T00:25:17.559Z,0.00
2023-04-01T00:26:17.563Z,0.00
2023-04-01T00:27:17.553Z,0.00
2023-04-01T00:28:17.551Z,0.00
2023-04-01T00:29:17.561Z,0.00
2023-04-01T00:30:17.544Z,0.00
2023-04-01T00:31:17.666Z,0.00
2023-04-01T00:32:17.542Z,0.00
2023-04-01T00:33:17.578Z,0.00
2023-04-01T00:34:17.537Z,0.00
2023-04-01T00:35:17.564Z,0.00
2023-04-01T00:36:17.552Z,0.00
2023-04-01T00:37:17.545Z,0.00
2023-04-01T00:38:17.540Z,0.00
2023-04-01T00:39:17.549Z,0.00
2023-04-01T00:40:17.535Z,0.00
2023-04-01T00:41:17.533Z,0.00
2023-04-01T00:42:17.533Z,0.00
2023-04-01T00:43:17.527Z,0.00
2023-04-01T00:44:17.532Z,0.00
2023-04-01T00:45:17.527Z,0.00
2023-04-01T00:46:17.556Z,0.00
2023-04-01T00:47:17.529Z,0.00
2023-04-01T00:48:17.518Z,0.00
2023-04-01T00:49:17.529Z,0.00
2023-04-01T00:50:17.517Z,0.00
2023-04-01T00:51:17.548Z,0.00
2023-04-01T00:52:17.520Z,0.00
2023-04-01T00:53:17.522Z,0.00
2023-04-01T00:54:17.508Z,0.00
2023-04-01T00:55:17.524Z,0.00
2023-04-01T00:56:17.512Z,0.00
2023-04-01T00:57:17.591Z,0.00
2023-04-01T00:58:17.505Z,0.00
2023-04-01T00:59:17.513Z,0.00
2023-04-01T01:00:17.505Z,0.00
2023-04-01T01:01:17.587Z,0.00
2023-04-01T01:02:17.533Z,0.00
2023-04-01T01:03:17.531Z,0.00
2023-04-01T01:04:17.501Z,0.00
2023-04-01T01:05:17.495Z,0.00
2023-04-01T01:06:17.490Z,0.00
2023-04-01T01:07:17.529Z,0.00
2023-04-01T01:08:17.486Z,0.00
2023-04-01T01:09:17.498Z,0.00
2023-04-01T01:10:17.486Z,0.00
2023-04-01T01:11:17.990Z,0.00
2023-04-01T01:12:17.487Z,0.00
2023-04-01T01:13:17.485Z,0.00
2023-04-01T01:14:17.476Z,0.00
2023-04-01T01:15:17.495Z,0.00
2023-04-01T01:16:17.499Z,0.00
2023-04-01T01:17:17.471Z,0.00
2023-04-01T01:18:17.509Z,0.00
2023-04-01T01:19:17.478Z,0.00
2023-04-01T01:20:25.980Z,0.00
2023-04-01T01:21:17.462Z,0.00
2023-04-01T01:22:17.466Z,0.00
2023-04-01T01:23:17.492Z,0.00
2023-04-01T01:24:17.459Z,0.00
2023-04-01T01:25:17.478Z,0.00
2023-04-01T01:26:17.461Z,0.00
2023-04-01T01:27:17.462Z,0.00
2023-04-01T01:28:17.454Z,0.00
2023-04-01T01:29:17.461Z,0.00
2023-04-01T01:30:17.450Z,0.00
2023-04-01T01:31:17.483Z,0.00
2023-04-01T01:32:17.445Z,0.00
2023-04-01T01:33:17.452Z,0.00
2023-04-01T01:34:17.448Z,0.00
2023-04-01T01:35:17.449Z,0.00
2023-04-01T01:36:17.452Z,0.00
2023-04-01T01:37:17.450Z,0.00
2023-04-01T01:38:17.434Z,0.00
2023-04-01T01:39:17.462Z,0.00
2023-04-01T01:40:17.429Z,0.00
2023-04-01T01:41:17.434Z,0.00
2023-04-01T01:42:17.428Z,0.00
2023-04-01T01:43:17.429Z,0.00
2023-04-01T01:44:17.427Z,0.00
2023-04-01T01:45:17.430Z,0.00
2023-04-01T01:46:17.502Z,0.00
2023-04-01T01:47:17.422Z,0.00
2023-04-01T01:48:17.429Z,0.00
2023-04-01T01:49:17.420Z,0.00
2023-04-01T01:50:17.412Z,0.00
2023-04-01T01:51:17.418Z,0.00
2023-04-01T01:52:17.408Z,0.00
2023-04-01T01:53:17.421Z,0.00
2023-04-01T01:54:17.406Z,0.00
2023-04-01T01:55:17.430Z,0.00
2023-04-01T01:56:17.406Z,0.00
2023-04-01T01:57:17.462Z,0.00
2023-04-01T01:58:17.407Z,0.00
2023-04-01T01:59:17.402Z,0.00
2023-04-01T02:00:17.414Z,0.00
2023-04-01T02:01:17.427Z,0.00
2023-04-01T02:02:17.394Z,0.00
2023-04-01T02:03:17.389Z,0.00
2023-04-01T02:04:17.436Z,0.00
2023-04-01T02:05:17.383Z,0.00
2023-04-01T02:06:17.389Z,0.00
2023-04-01T02:07:17.385Z,0.00
2023-04-01T02:08:17.409Z,0.00
2023-04-01T02:09:17.382Z,0.00
2023-04-01T02:10:17.381Z,0.00
2023-04-01T02:11:17.400Z,0.00
2023-04-01T02:12:17.377Z,0.00
2023-04-01T02:13:17.385Z,0.00
2023-04-01T02:14:17.394Z,0.00
2023-04-01T02:15:17.374Z,0.00
2023-04-01T02:16:17.405Z,0.00
2023-04-01T02:17:17.372Z,0.00
2023-04-01T02:18:17.369Z,0.00
2023-04-01T02:19:17.363Z,0.00
2023-04-01T02:20:17.368Z,0.00
2023-04-01T02:21:17.370Z,0.00
2023-04-01T02:22:17.373Z,0.00
2023-04-01T02:23:17.355Z,0.00
2023-04-01T02:24:17.356Z,0.00
2023-04-01T02:25:17.346Z,0.00
2023-04-01T02:26:17.367Z,0.00
2023-04-01T02:27:17.373Z,0.00
2023-04-01T02:28:17.364Z,0.00
2023-04-01T02:29:17.341Z,0.00
2023-04-01T02:30:17.343Z,0.00
2023-04-01T02:31:17.368Z,0.00
2023-04-01T02:32:17.351Z,0.00
2023-04-01T02:33:17.338Z,0.00
2023-04-01T02:34:17.357Z,0.00
2023-04-01T02:35:17.336Z,0.00
2023-04-01T02:36:17.386Z,0.00
2023-04-01T02:37:17.331Z,0.00
2023-04-01T02:38:17.340Z,0.00
2023-04-01T02:39:17.332Z,0.00
2023-04-01T02:40:17.326Z,0.00
2023-04-01T02:41:17.327Z,0.00
2023-04-01T02:42:17.344Z,0.00
2023-04-01T02:43:17.349Z,0.00
2023-04-01T02:44:17.322Z,0.00
2023-04-01T02:45:17.322Z,0.00
2023-04-01T02:46:17.385Z,0.00
2023-04-01T02:47:17.317Z,0.00
2023-04-01T02:48:17.320Z,0.00
2023-04-01T02:49:17.312Z,0.00
2023-04-01T02:50:17.320Z,0.00
2023-04-01T02:51:18.370Z,0.00
2023-04-01T02:52:17.318Z,0.00
2023-04-01T02:53:17.310Z,0.00
2023-04-01T02:54:17.311Z,0.00
2023-04-01T02:55:17.303Z,0.00
2023-04-01T02:56:17.306Z,0.00
2023-04-01T02:57:17.384Z,0.00
2023-04-01T02:58:17.301Z,0.00
2023-04-01T02:59:17.344Z,0.00
2023-04-01T03:00:17.333Z,0.00
2023-04-01T03:01:17.324Z,0.00
2023-04-01T03:02:17.326Z,0.00
2023-04-01T03:03:17.372Z,0.00
2023-04-01T03:04:17.292Z,0.00
2023-04-01T03:05:17.284Z,0.00
2023-04-01T03:06:17.301Z,0.00
2023-04-01T03:07:17.311Z,0.00
2023-04-01T03:08:17.290Z,0.00
2023-04-01T03:09:17.283Z,0.00
2023-04-01T03:10:17.280Z,0.00
2023-04-01T03:11:17.282Z,0.00
2023-04-01T03:12:17.282Z,0.00
2023-04-01T03:13:17.278Z,0.00
2023-04-01T03:14:17.277Z,0.00
2023-04-01T03:15:17.296Z,0.00
2023-04-01T03:16:17.304Z,0.00
2023-04-01T03:17:17.268Z,0.00
2023-04-01T03:18:17.272Z,0.00
2023-04-01T03:19:17.263Z,0.00
2023-04-01T03:20:17.272Z,0.00
2023-04-01T03:21:17.264Z,0.00
2023-04-01T03:22:17.258Z,0.00
2023-04-01T03:23:17.258Z,0.00
2023-04-01T03:24:17.257Z,0.00
2023-04-01T03:25:17.258Z,0.00
2023-04-01T03:26:17.269Z,0.00
2023-04-01T03:27:17.247Z,0.00
2023-04-01T03:28:17.251Z,0.00
2023-04-01T03:29:17.268Z,0.00
2023-04-01T03:30:17.304Z,0.00
2023-04-01T03:31:17.372Z,0.00
2023-04-01T03:32:17.243Z,0.00
2023-04-01T03:33:17.238Z,0.00
2023-04-01T03:34:17.239Z,0.00
2023-04-01T03:35:17.234Z,0.00
2023-04-01T03:36:17.276Z,0.00
2023-04-01T03:37:17.232Z,0.00
2023-04-01T03:38:17.234Z,0.00
2023-04-01T03:39:17.231Z,0.00
2023-04-01T03:40:17.232Z,0.00
2023-04-01T03:41:17.229Z,0.00
2023-04-01T03:42:17.229Z,0.00
2023-04-01T03:43:17.294Z,0.00
2023-04-01T03:44:17.226Z,0.00
2023-04-01T03:45:17.217Z,0.00
2023-04-01T03:46:17.241Z,0.00
2023-04-01T03:47:17.242Z,0.00
2023-04-01T03:48:17.219Z,0.00
2023-04-01T03:49:17.213Z,0.00
2023-04-01T03:50:17.214Z,0.00
2023-04-01T03:51:17.209Z,0.00
2023-04-01T03:52:17.209Z,0.00
2023-04-01T03:53:17.215Z,0.00
2023-04-01T03:54:17.216Z,0.00
2023-04-01T03:55:17.207Z,0.00
2023-04-01T03:56:17.210Z,0.00
2023-04-01T03:57:17.230Z,0.00
2023-04-01T03:58:17.202Z,0.00
2023-04-01T03:59:17.202Z,0.00
2023-04-01T04:00:17.203Z,0.00
2023-04-01T04:01:17.211Z,0.00
2023-04-01T04:02:17.215Z,0.00
2023-04-01T04:03:17.304Z,0.00
2023-04-01T04:04:17.225Z,0.00
2023-04-01T04:05:17.200Z,0.00
2023-04-01T04:06:17.191Z,0.00
2023-04-01T04:07:17.188Z,0.00
2023-04-01T04:08:17.190Z,0.00
2023-04-01T04:09:17.187Z,0.00
2023-04-01T04:10:59.726Z,0.00
2023-04-01T04:11:59.726Z,0.00
2023-04-01T04:12:59.735Z,0.00
2023-04-01T04:13:59.728Z,0.00
2023-04-01T04:16:22.412Z,0.00
2023-04-01T04:17:22.775Z,0.00
2023-04-01T04:18:25.994Z,0.00
2023-04-01T04:23:51.045Z,0.00
2023-04-01T04:27:36.286Z,0.00
2023-04-01T04:28:36.283Z,0.00
2023-04-01T04:29:36.292Z,0.00
2023-04-01T04:30:36.272Z,0.00
2023-04-01T04:31:36.314Z,0.00
2023-04-01T04:32:36.294Z,0.00
2023-04-01T04:33:36.318Z,0.00
2023-04-01T04:34:36.276Z,0.00
2023-04-01T04:35:36.298Z,0.00
2023-04-01T04:36:36.263Z,0.00
2023-04-01T04:37:36.257Z,0.00
2023-04-01T04:38:36.261Z,0.00
2023-04-01T04:39:36.265Z,0.00
2023-04-01T04:40:36.254Z,0.00
2023-04-01T04:41:37.708Z,0.00
2023-04-01T04:42:36.255Z,0.00
2023-04-01T04:43:36.247Z,0.00
2023-04-01T04:44:36.253Z,0.00
2023-04-01T04:45:36.247Z,0.00
2023-04-01T04:46:36.269Z,0.00
2023-04-01T04:47:36.274Z,0.00
2023-04-01T04:48:36.242Z,0.00
2023-04-01T04:49:36.273Z,0.00
2023-04-01T04:50:36.237Z,0.00
2023-04-01T04:51:36.236Z,0.00
2023-04-01T04:52:36.237Z,0.00
2023-04-01T04:53:36.242Z,0.00
2023-04-01T04:54:36.239Z,5.63
2023-04-01T04:55:36.231Z,0.00
2023-04-01T04:56:36.247Z,5.63
2023-04-01T04:57:36.284Z,5.63
2023-04-01T04:58:36.227Z,5.63
2023-04-01T04:59:36.226Z,5.63
2023-04-01T05:00:36.235Z,5.63
2023-04-01T05:01:36.271Z,5.63
2023-04-01T05:02:36.356Z,5.63
2023-04-01T05:03:36.329Z,5.63
2023-04-01T05:04:36.222Z,11.25
2023-04-01T05:05:36.237Z,5.63
2023-04-01T05:06:36.209Z,5.63
2023-04-01T05:07:36.208Z,5.63
2023-04-01T05:08:36.207Z,11.25
2023-04-01T05:09:36.218Z,11.25
2023-04-01T05:10:36.204Z,5.63
2023-04-01T05:11:36.211Z,11.25
2023-04-01T05:12:36.209Z,11.25
2023-04-01T05:13:36.203Z,11.25
2023-04-01T05:14:36.200Z,11.25
2023-04-01T05:15:36.196Z,5.63
2023-04-01T05:16:36.214Z,5.63
2023-04-01T05:17:36.229Z,11.25
2023-04-01T05:18:36.192Z,11.25
2023-04-01T05:19:36.200Z,11.25
2023-04-01T05:20:36.268Z,11.25
2023-04-01T05:21:36.212Z,11.25
2023-04-01T05:22:36.189Z,11.25
2023-04-01T05:23:36.191Z,11.25
2023-04-01T05:24:36.185Z,11.25
2023-04-01T05:25:36.184Z,11.25
2023-04-01T05:26:36.182Z,16.88
2023-04-01T05:27:36.183Z,11.25
2023-04-01T05:28:36.180Z,11.25
2023-04-01T05:29:36.173Z,11.25
2023-04-01T05:30:36.221Z,16.88
2023-04-01T05:31:36.187Z,16.88
2023-04-01T05:32:36.212Z,16.88
2023-04-01T05:33:36.176Z,16.88
2023-04-01T05:34:36.168Z,22.50
2023-04-01T05:35:36.400Z,22.50
2023-04-01T05:36:36.169Z,16.88
2023-04-01T05:37:36.189Z,22.50
2023-04-01T05:38:36.164Z,22.50
2023-04-01T05:39:36.171Z,22.50
2023-04-01T05:40:36.162Z,22.50
2023-04-01T05:41:36.164Z,22.50
2023-04-01T05:42:37.717Z,22.50
2023-04-01T05:43:36.161Z,22.50
2023-04-01T05:44:36.152Z,22.50
2023-04-01T05:45:36.158Z,16.88
2023-04-01T05:46:36.243Z,22.50
2023-04-01T05:47:36.201Z,16.88
2023-04-01T05:48:36.174Z,22.50
2023-04-01T05:49:36.156Z,16.88
2023-04-01T05:50:36.148Z,16.88
2023-04-01T05:51:36.151Z,16.88
2023-04-01T05:52:36.158Z,16.88
2023-04-01T05:53:36.161Z,16.88
2023-04-01T05:54:36.141Z,22.50
2023-04-01T05:55:36.143Z,22.50
2023-04-01T05:56:36.137Z,22.50
2023-04-01T05:57:36.234Z,22.50
2023-04-01T05:58:36.132Z,22.50
2023-04-01T05:59:36.135Z,28.13
2023-04-01T06:00:36.131Z,22.50
2023-04-01T06:01:36.131Z,22.50
2023-04-01T06:02:36.185Z,28.13
2023-04-01T06:03:36.252Z,28.13
2023-04-01T06:04:36.163Z,28.13
2023-04-01T06:05:36.124Z,28.13
2023-04-01T06:06:36.125Z,28.13
2023-04-01T06:07:36.123Z,28.13
2023-04-01T06:08:36.118Z,28.13
2023-04-01T06:09:36.137Z,28.13
2023-04-01T06:10:36.114Z,28.13
2023-04-01T06:11:36.114Z,28.13
2023-04-01T06:12:36.112Z,22.50
2023-04-01T06:13:36.115Z,22.50
2023-04-01T06:14:36.106Z,28.13
2023-04-01T06:15:36.109Z,33.75
2023-04-01T06:16:36.136Z,33.75
2023-04-01T06:17:36.122Z,39.38
2023-04-01T06:18:36.115Z,39.38
2023-04-01T06:19:36.116Z,33.75
2023-04-01T06:20:36.121Z,33.75
2023-04-01T06:21:36.152Z,33.75
2023-04-01T06:22:36.108Z,33.75
2023-04-01T06:23:36.104Z,39.38
2023-04-01T06:24:36.119Z,39.38
2023-04-01T06:25:36.330Z,45.00
2023-04-01T06:26:36.093Z,39.38
2023-04-01T06:27:36.103Z,39.38
2023-04-01T06:28:36.089Z,39.38
2023-04-01T06:29:36.124Z,39.38
2023-04-01T06:30:36.120Z,45.00
2023-04-01T06:31:36.131Z,56.25
2023-04-01T06:32:36.159Z,61.88
2023-04-01T06:33:36.096Z,67.50
2023-04-01T06:34:36.075Z,78.75
2023-04-01T06:35:36.437Z,84.38
2023-04-01T06:36:36.154Z,78.75
2023-04-01T06:37:36.096Z,73.13
2023-04-01T06:38:36.075Z,67.50
2023-04-01T06:39:36.082Z,73.13
2023-04-01T06:40:36.079Z,73.13
2023-04-01T06:41:36.102Z,78.75
2023-04-01T06:42:36.070Z,78.75
2023-04-01T06:43:36.075Z,78.75
2023-04-01T06:44:36.074Z,78.75
2023-04-01T06:45:36.404Z,78.75
2023-04-01T06:46:36.063Z,84.38
2023-04-01T06:47:36.114Z,90.00
2023-04-01T06:48:36.069Z,95.63
2023-04-01T06:49:36.063Z,106.88
2023-04-01T06:50:36.058Z,112.50
2023-04-01T06:51:36.062Z,123.75
2023-04-01T06:52:36.057Z,135.00
2023-04-01T06:53:36.067Z,135.00
2023-04-01T06:54:36.056Z,135.00
2023-04-01T06:55:36.059Z,146.25
2023-04-01T06:56:36.055Z,151.88
2023-04-01T06:57:36.083Z,146.25
2023-04-01T06:58:36.049Z,140.63
2023-04-01T06:59:36.083Z,140.63
2023-04-01T07:00:36.065Z,146.25
2023-04-01T07:01:36.071Z,140.63
2023-04-01T07:02:36.072Z,140.63
2023-04-01T07:03:36.054Z,140.63
2023-04-01T07:04:36.102Z,135.00
2023-04-01T07:05:36.040Z,140.63
2023-04-01T07:06:36.034Z,140.63
2023-04-01T07:13:53.550Z,151.88
2023-04-01T07:14:53.525Z,151.88
2023-04-01T07:17:36.857Z,157.50
2023-04-01T07:19:54.447Z,151.88
2023-04-01T07:20:54.440Z,146.25
2023-04-01T07:21:54.434Z,140.63
2023-04-01T07:22:54.429Z,123.75
2023-04-01T07:23:54.429Z,112.50
2023-04-01T07:44:39.139Z,123.75
2023-04-01T07:46:30.892Z,112.50
2023-04-01T07:47:30.920Z,112.50
2023-04-01T07:48:30.873Z,118.13
2023-04-01T07:49:30.871Z,118.13
2023-04-01T07:50:30.881Z,123.75
2023-04-01T07:51:30.866Z,118.13
2023-04-01T07:52:30.878Z,112.50
2023-04-01T07:53:30.870Z,101.25
2023-04-01T07:54:30.862Z,90.00
2023-04-01T08:00:15.098Z,129.38
2023-04-01T08:02:17.689Z,129.38
2023-04-01T08:03:18.076Z,106.88
2023-04-01T08:04:17.743Z,73.13
2023-04-01T08:05:17.646Z,84.38
2023-04-01T08:06:17.653Z,90.00
2023-04-01T08:07:17.646Z,118.13
2023-04-01T08:08:17.644Z,135.00
2023-04-01T08:09:17.647Z,151.88
2023-04-01T08:10:17.642Z,163.13
2023-04-01T08:11:17.662Z,174.38
2023-04-01T08:12:17.638Z,185.63
2023-04-01T08:13:17.777Z,174.38
2023-04-01T08:14:17.634Z,180.00
2023-04-01T08:15:17.635Z,191.25
2023-04-01T08:16:17.738Z,202.50
2023-04-01T08:17:17.641Z,202.50
2023-04-01T08:18:17.664Z,208.13
2023-04-01T08:19:17.627Z,196.88
2023-04-01T08:20:17.629Z,208.13
2023-04-01T08:21:17.625Z,213.75
2023-04-01T08:22:17.624Z,213.75
2023-04-01T08:23:17.617Z,230.63
2023-04-01T08:24:17.621Z,241.88
2023-04-01T08:25:17.616Z,253.13
2023-04-01T08:26:17.616Z,241.88
2023-04-01T08:27:17.612Z,225.00
2023-04-01T08:28:17.616Z,225.00
2023-04-01T08:29:17.612Z,225.00
2023-04-01T08:30:17.626Z,225.00
2023-04-01T08:31:17.617Z,219.38
2023-04-01T08:32:17.635Z,208.13
2023-04-01T08:33:17.611Z,213.75
2023-04-01T08:34:17.630Z,219.38
2023-04-01T08:35:17.611Z,225.00
2023-04-01T08:36:17.662Z,208.13
2023-04-01T08:37:17.600Z,213.75
2023-04-01T08:38:17.599Z,208.13
2023-04-01T08:39:17.602Z,196.88
2023-04-01T08:40:17.599Z,191.25
2023-04-01T08:41:17.601Z,208.13
2023-04-01T08:42:17.596Z,208.13
2023-04-01T08:43:17.594Z,202.50
2023-04-01T08:44:17.598Z,202.50
2023-04-01T08:45:17.594Z,208.13
2023-04-01T08:46:17.643Z,196.88
2023-04-01T08:47:17.586Z,196.88
2023-04-01T08:48:17.615Z,191.25
2023-04-01T08:49:17.585Z,180.00
2023-04-01T08:50:17.588Z,196.88
2023-04-01T08:51:17.629Z,208.13
2023-04-01T08:52:17.587Z,208.13
2023-04-01T08:53:17.581Z,230.63
2023-04-01T08:54:17.579Z,219.38
2023-04-01T08:55:17.586Z,236.25
2023-04-01T08:56:17.583Z,202.50
2023-04-01T08:57:17.686Z,241.88
2023-04-01T08:58:17.576Z,247.50
2023-04-01T08:59:17.573Z,196.88
2023-04-01T09:00:17.576Z,208.13
2023-04-01T09:01:17.573Z,208.13
2023-04-01T09:02:17.612Z,191.25
2023-04-01T09:03:17.636Z,191.25
2023-04-01T09:04:17.656Z,202.50
2023-04-01T09:05:17.570Z,213.75
2023-04-01T09:06:17.574Z,208.13
2023-04-01T09:07:17.567Z,219.38
2023-04-01T09:08:17.573Z,219.38
2023-04-01T09:09:17.562Z,230.63
2023-04-01T09:10:17.569Z,225.00
2023-04-01T09:11:17.559Z,230.63
2023-04-01T09:12:17.558Z,219.38
2023-04-01T09:13:17.564Z,213.75
2023-04-01T09:14:17.561Z,213.75
2023-04-01T09:15:17.554Z,225.00
2023-04-01T09:16:17.605Z,213.75
2023-04-01T09:17:17.551Z,236.25
2023-04-01T09:18:17.553Z,219.38
2023-04-01T09:19:17.562Z,247.50
2023-04-01T09:20:17.573Z,247.50
2023-04-01T09:21:17.548Z,219.38
2023-04-01T09:22:17.549Z,236.25
2023-04-01T09:23:17.546Z,241.88
2023-04-01T09:24:17.552Z,230.63
2023-04-01T09:25:17.557Z,253.13
2023-04-01T09:26:17.551Z,241.88
2023-04-01T09:27:17.589Z,236.25
2023-04-01T09:28:17.548Z,225.00
2023-04-01T09:29:17.555Z,230.63
2023-04-01T09:30:17.548Z,213.75
2023-04-01T09:31:17.578Z,236.25
2023-04-01T09:32:17.545Z,213.75
2023-04-01T09:33:17.547Z,236.25
2023-04-01T09:34:17.547Z,208.13
2023-04-01T09:35:17.538Z,213.75
2023-04-01T09:36:17.619Z,213.75
2023-04-01T09:37:17.544Z,196.88
2023-04-01T09:38:17.543Z,202.50
2023-04-01T09:39:17.535Z,219.38
2023-04-01T09:40:17.546Z,202.50
2023-04-01T09:41:17.534Z,225.00
2023-04-01T09:42:17.533Z,208.13
2023-04-01T09:43:17.541Z,225.00
2023-04-01T09:44:17.529Z,230.63
2023-04-01T09:45:17.525Z,247.50
2023-04-01T09:46:17.577Z,258.75
2023-04-01T09:47:17.526Z,258.75
2023-04-01T09:48:17.535Z,281.25
2023-04-01T09:49:17.529Z,247.50
2023-04-01T09:50:17.528Z,264.38
2023-04-01T09:51:17.522Z,270.00
2023-04-01T09:52:17.551Z,258.75
2023-04-01T09:53:17.521Z,258.75
2023-04-01T09:54:17.519Z,230.63
2023-04-01T09:55:17.512Z,247.50
2023-04-01T09:56:17.516Z,225.00
2023-04-01T09:57:17.677Z,225.00
2023-04-01T09:58:17.522Z,236.25
2023-04-01T09:59:17.511Z,241.88
2023-04-01T10:00:17.509Z,225.00
2023-04-01T10:01:17.553Z,219.38
2023-04-01T10:02:17.511Z,208.13
2023-04-01T10:03:17.501Z,191.25
2023-04-01T10:04:17.506Z,196.88
2023-04-01T10:05:17.524Z,219.38
2023-04-01T10:06:17.561Z,208.13
2023-04-01T10:07:17.512Z,208.13
2023-04-01T10:08:17.518Z,219.38
2023-04-01T10:09:17.495Z,230.63
2023-04-01T10:10:17.646Z,225.00
2023-04-01T10:11:17.491Z,236.25
2023-04-01T10:12:17.629Z,241.88
2023-04-01T10:13:17.491Z,236.25
2023-04-01T10:14:17.498Z,253.13
2023-04-01T10:15:17.506Z,264.38
2023-04-01T10:16:17.536Z,241.88
2023-04-01T10:17:17.487Z,241.88
2023-04-01T10:18:17.522Z,253.13
2023-04-01T10:19:17.531Z,241.88
2023-04-01T10:20:17.543Z,258.75
2023-04-01T10:21:17.481Z,241.88
2023-04-01T10:22:17.487Z,236.25
2023-04-01T10:23:17.482Z,247.50
2023-04-01T10:24:17.500Z,258.75
2023-04-01T10:25:17.501Z,247.50
2023-04-01T10:26:17.476Z,241.88
2023-04-01T10:27:17.473Z,213.75
2023-04-01T10:28:17.471Z,213.75
2023-04-01T10:29:17.752Z,236.25
2023-04-01T10:30:17.472Z,230.63
2023-04-01T10:31:17.487Z,241.88
2023-04-01T10:32:17.492Z,241.88
2023-04-01T10:33:17.475Z,236.25
2023-04-01T10:34:17.470Z,241.88
2023-04-01T10:35:17.469Z,241.88
2023-04-01T10:36:17.557Z,236.25
2023-04-01T10:37:17.469Z,230.63
2023-04-01T10:38:17.465Z,230.63
2023-04-01T10:39:17.456Z,270.00
2023-04-01T10:40:17.505Z,281.25
2023-04-01T10:41:17.478Z,264.38
2023-04-01T10:42:17.454Z,264.38
2023-04-01T10:43:17.464Z,230.63
2023-04-01T10:44:17.456Z,180.00
2023-04-01T10:45:17.457Z,225.00
2023-04-01T10:46:17.608Z,275.63
2023-04-01T10:47:17.478Z,230.63
2023-04-01T10:48:17.453Z,241.88
2023-04-01T10:49:17.445Z,298.13
2023-04-01T10:50:17.452Z,331.88
2023-04-01T10:51:17.444Z,343.13
2023-04-01T10:52:17.452Z,360.00
2023-04-01T10:53:17.441Z,343.13
2023-04-01T10:54:17.470Z,320.63
2023-04-01T10:55:17.442Z,337.50
2023-04-01T10:56:17.462Z,309.38
2023-04-01T10:57:17.495Z,303.75
2023-04-01T10:58:17.444Z,303.75
2023-04-01T10:59:17.439Z,292.50
2023-04-01T11:00:17.439Z,303.75
2023-04-01T11:01:17.485Z,298.13
2023-04-01T11:02:17.486Z,331.88
2023-04-01T11:03:17.542Z,348.75
2023-04-01T11:04:17.436Z,354.38
2023-04-01T11:05:20.211Z,337.50
2023-04-01T11:06:17.441Z,371.25
2023-04-01T11:07:17.428Z,360.00
2023-04-01T11:08:17.429Z,326.25
2023-04-01T11:09:17.432Z,343.13
2023-04-01T11:10:17.424Z,320.63
2023-04-01T11:11:17.429Z,298.13
2023-04-01T11:12:17.449Z,331.88
2023-04-01T11:13:17.420Z,348.75
2023-04-01T11:14:17.426Z,371.25
2023-04-01T11:15:17.416Z,303.75
2023-04-01T11:16:18.610Z,331.88
2023-04-01T11:17:17.433Z,343.13
2023-04-01T11:18:17.421Z,371.25
2023-04-01T11:19:17.413Z,360.00
2023-04-01T11:20:17.418Z,337.50
2023-04-01T11:21:17.408Z,326.25
2023-04-01T11:22:17.413Z,331.88
2023-04-01T11:23:17.407Z,309.38
2023-04-01T11:24:17.410Z,292.50
2023-04-01T11:25:17.409Z,315.00
2023-04-01T11:26:17.407Z,326.25
2023-04-01T11:27:17.479Z,320.63
2023-04-01T11:28:17.427Z,303.75
2023-04-01T11:29:17.401Z,298.13
2023-04-01T11:30:17.408Z,258.75
2023-04-01T11:31:17.448Z,219.38
2023-04-01T11:32:17.406Z,219.38
2023-04-01T11:33:20.058Z,264.38
2023-04-01T11:34:17.395Z,247.50
2023-04-01T11:35:17.392Z,258.75
2023-04-01T11:36:17.483Z,241.88
2023-04-01T11:37:17.390Z,236.25
2023-04-01T11:38:17.397Z,225.00
2023-04-01T11:39:17.390Z,225.00
2023-04-01T11:40:17.391Z,208.13
2023-04-01T11:41:17.390Z,213.75
2023-04-01T11:42:17.388Z,219.38
2023-04-01T11:43:30.078Z,230.63
2023-04-01T11:44:17.425Z,230.63
2023-04-01T11:45:17.381Z,264.38
2023-04-01T11:46:17.429Z,264.38
2023-04-01T11:47:17.381Z,281.25
2023-04-01T11:48:17.377Z,275.63
2023-04-01T11:49:17.374Z,264.38
2023-04-01T11:50:17.376Z,236.25
2023-04-01T11:51:17.388Z,219.38
2023-04-01T11:52:17.385Z,219.38
2023-04-01T11:53:17.368Z,225.00
2023-04-01T11:54:17.372Z,202.50
2023-04-01T11:55:17.379Z,213.75
2023-04-01T11:56:17.376Z,219.38
2023-04-01T11:57:17.436Z,236.25
2023-04-01T11:58:17.366Z,236.25
2023-04-01T11:59:17.364Z,230.63
2023-04-01T12:00:17.396Z,230.63
2023-04-01T12:01:17.356Z,225.00
2023-04-01T12:02:19.299Z,225.00
2023-04-01T12:03:17.657Z,225.00
2023-04-01T12:04:17.417Z,202.50
2023-04-01T12:05:17.353Z,196.88
2023-04-01T12:06:17.355Z,213.75
2023-04-01T12:07:17.364Z,219.38
2023-04-01T12:08:17.355Z,208.13
2023-04-01T12:09:17.349Z,225.00
2023-04-01T12:10:17.351Z,230.63
2023-04-01T12:11:17.357Z,230.63
2023-04-01T12:12:17.358Z,241.88
2023-04-01T12:13:17.342Z,247.50
2023-04-01T12:14:17.349Z,225.00
2023-04-01T12:15:17.348Z,213.75
2023-04-01T12:16:17.410Z,213.75
2023-04-01T12:17:17.342Z,213.75
2023-04-01T12:18:17.339Z,196.88
2023-04-01T12:19:17.337Z,196.88
2023-04-01T12:20:17.336Z,202.50
2023-04-01T12:21:17.340Z,202.50
2023-04-01T12:22:17.340Z,208.13
2023-04-01T12:23:17.331Z,213.75
2023-04-01T12:24:17.328Z,208.13
2023-04-01T12:25:17.342Z,219.38
2023-04-01T12:26:17.320Z,202.50
2023-04-01T12:27:17.326Z,208.13
2023-04-01T12:28:17.323Z,230.63
2023-04-01T12:29:17.326Z,247.50
2023-04-01T12:30:17.317Z,247.50
2023-04-01T12:31:17.325Z,236.25
2023-04-01T12:32:17.420Z,225.00
2023-04-01T12:33:17.328Z,236.25
2023-04-01T12:34:17.312Z,247.50
2023-04-01T12:35:17.327Z,253.13
2023-04-01T12:36:17.307Z,264.38
2023-04-01T12:37:17.309Z,264.38
2023-04-01T12:38:17.880Z,230.63
2023-04-01T12:39:17.308Z,230.63
2023-04-01T12:40:17.304Z,230.63
2023-04-01T12:41:17.305Z,219.38
2023-04-01T12:42:17.300Z,225.00
2023-04-01T12:43:17.306Z,264.38
2023-04-01T12:44:17.301Z,281.25
2023-04-01T12:45:17.298Z,286.88
2023-04-01T12:46:17.328Z,298.13
2023-04-01T12:47:17.296Z,264.38
2023-04-01T12:48:17.324Z,236.25
2023-04-01T12:49:17.307Z,241.88
2023-04-01T12:50:17.308Z,258.75
2023-04-01T12:51:17.294Z,270.00
2023-04-01T12:52:17.284Z,275.63
2023-04-01T12:53:17.288Z,298.13
2023-04-01T12:54:17.288Z,331.88
2023-04-01T12:55:17.283Z,337.50
2023-04-01T12:56:17.275Z,343.13
2023-04-01T12:57:17.332Z,326.25
2023-04-01T12:58:17.276Z,303.75
2023-04-01T12:59:17.280Z,303.75
2023-04-01T13:00:17.276Z,292.50
2023-04-01T13:01:17.381Z,264.38
2023-04-01T13:02:17.267Z,264.38
2023-04-01T13:03:17.273Z,258.75
2023-04-01T13:04:17.326Z,264.38
2023-04-01T13:05:17.270Z,270.00
2023-04-01T13:06:19.128Z,286.88
2023-04-01T13:07:17.262Z,253.13
2023-04-01T13:08:17.276Z,225.00
2023-04-01T13:09:17.259Z,208.13
2023-04-01T13:10:17.261Z,202.50
2023-04-01T13:11:17.257Z,219.38
2023-04-01T13:12:17.350Z,281.25
2023-04-01T13:13:17.304Z,264.38
2023-04-01T13:14:29.171Z,225.00
2023-04-01T13:15:17.256Z,208.13
2023-04-01T13:16:17.289Z,219.38
2023-04-01T13:17:17.252Z,241.88
2023-04-01T13:18:17.247Z,230.63
2023-04-01T13:19:17.250Z,208.13
2023-04-01T13:20:17.274Z,202.50
2023-04-01T13:21:17.240Z,191.25
2023-04-01T13:22:17.238Z,185.63
2023-04-01T13:23:17.236Z,174.38
2023-04-01T13:24:17.232Z,196.88
2023-04-01T13:25:17.237Z,180.00
2023-04-01T13:26:17.237Z,163.13
2023-04-01T13:27:17.237Z,151.88
2023-04-01T13:28:17.251Z,151.88
2023-04-01T13:29:17.226Z,129.38
2023-04-01T13:30:17.230Z,157.50
2023-04-01T13:31:17.277Z,157.50
2023-04-01T13:32:17.236Z,146.25
2023-04-01T13:33:17.375Z,163.13
2023-04-01T13:34:17.221Z,157.50
2023-04-01T13:35:17.229Z,157.50